createdAt,value
2022-10-10T00:00:02.249Z,1027.77
2022-10-10T00:10:01.972Z,1027.68
2022-10-10T00:20:01.569Z,1027.63
2022-10-10T00:30:01.001Z,1027.52
2022-10-10T00:40:01.903Z,1027.39
2022-10-10T00:50:01.315Z,1027.29
2022-10-10T01:00:01.006Z,1027.24
2022-10-10T01:10:00.158Z,1027.15
2022-10-10T01:20:01.689Z,1027.05
2022-10-10T01:30:01.245Z,1026.93
2022-10-10T01:40:01.447Z,1026.89
2022-10-10T01:50:00.168Z,1026.74
2022-10-10T02:00:01.016Z,1026.69
2022-10-10T02:10:00.133Z,1026.52
2022-10-10T02:20:01.058Z,1026.47
2022-10-10T02:30:01.218Z,1026.32
2022-10-10T02:40:00.144Z,1026.21
2022-10-10T02:50:01.117Z,1026.17
2022-10-10T03:00:00.968Z,1026.00
2022-10-10T03:10:01.115Z,1025.94
2022-10-10T03:20:01.060Z,1025.81
2022-10-10T03:30:00.162Z,1025.70
2022-10-10T03:40:00.137Z,1025.65
2022-10-10T03:50:01.574Z,1025.50
2022-10-10T04:00:01.159Z,1025.41
2022-10-10T04:10:00.778Z,1025.26
2022-10-10T04:20:01.366Z,1025.10
2022-10-10T04:30:01.054Z,1024.95
2022-10-10T04:40:01.044Z,1024.86
2022-10-10T04:50:01.536Z,1024.79
2022-10-10T05:00:01.006Z,1024.70
2022-10-10T05:10:00.151Z,1024.53
2022-10-10T05:20:01.390Z,1024.36
2022-10-10T05:30:01.087Z,1024.30
2022-10-10T05:40:00.969Z,1024.19
2022-10-10T05:50:01.303Z,1024.21
2022-10-10T06:00:00.139Z,1024.07
2022-10-10T06:10:01.022Z,1024.12
2022-10-10T06:20:00.979Z,1024.02
2022-10-10T06:30:00.140Z,1024.01
2022-10-10T06:40:01.193Z,1024.02
2022-10-10T06:50:00.171Z,1023.94
2022-10-10T07:00:01.092Z,1023.80
2022-10-10T07:10:00.145Z,1023.73
2022-10-10T07:20:01.012Z,1023.52
2022-10-10T07:30:01.248Z,1023.55
2022-10-10T07:40:01.222Z,1023.60
2022-10-10T07:50:01.075Z,1023.52
2022-10-10T08:00:00.135Z,1023.51
2022-10-10T08:10:00.165Z,1023.50
2022-10-10T08:20:00.132Z,1023.37
2022-10-10T08:30:00.163Z,1023.30
2022-10-10T08:40:00.120Z,1023.22
2022-10-10T08:50:01.051Z,1023.18
2022-10-10T09:00:01.048Z,1023.05
2022-10-10T09:10:00.152Z,1023.00
2022-10-10T09:20:00.112Z,1022.86
2022-10-10T09:30:00.864Z,1022.75
2022-10-10T09:40:01.870Z,1022.64
2022-10-10T09:50:00.252Z,1022.53
2022-10-10T10:00:02.336Z,1022.37
2022-10-10T10:10:01.176Z,1022.59
2022-10-10T10:20:01.477Z,1022.51
2022-10-10T10:40:00.952Z,1022.22
2022-10-10T11:00:21.459Z,1022.01
2022-10-10T11:10:00.166Z,1021.95
2022-10-10T11:20:01.046Z,1021.81
2022-10-10T11:30:01.713Z,1021.71
2022-10-10T11:40:01.243Z,1021.66
2022-10-10T11:50:01.293Z,1021.59
2022-10-10T12:00:00.145Z,1021.48
2022-10-10T12:10:01.013Z,1021.36
2022-10-10T12:20:01.872Z,1021.32
2022-10-10T12:30:01.349Z,1021.20
2022-10-10T12:40:00.985Z,1021.24
2022-10-10T12:50:00.989Z,1021.19
2022-10-10T13:00:02.357Z,1021.11
2022-10-10T13:10:01.084Z,1021.12
2022-10-10T13:20:01.080Z,1020.97
2022-10-10T13:30:02.187Z,1020.95
2022-10-10T13:40:01.277Z,1020.94
2022-10-10T13:50:01.135Z,1020.77
2022-10-10T14:00:01.256Z,1020.76
2022-10-10T14:10:01.029Z,1020.62
2022-10-10T14:20:01.302Z,1020.64
2022-10-10T14:30:01.048Z,1020.58
2022-10-10T14:40:01.007Z,1020.54
2022-10-10T14:50:01.403Z,1020.37
2022-10-10T15:00:01.028Z,1020.37
2022-10-10T15:10:31.916Z,1020.39
2022-10-10T15:20:00.152Z,1020.47
2022-10-10T15:30:01.393Z,1020.50
2022-10-10T15:40:01.104Z,1020.62
2022-10-10T15:50:01.096Z,1020.77
2022-10-10T16:00:01.051Z,1020.87
2022-10-10T16:10:01.024Z,1020.79
2022-10-10T16:20:01.880Z,1020.83
2022-10-10T16:30:01.557Z,1020.80
2022-10-10T16:40:01.942Z,1020.78
2022-10-10T16:50:01.388Z,1020.82
2022-10-10T17:00:01.236Z,1020.82
2022-10-10T17:10:01.291Z,1020.85
2022-10-10T17:20:01.311Z,1020.94
2022-10-10T17:30:01.298Z,1020.95
2022-10-10T17:40:01.039Z,1020.96
2022-10-10T17:50:01.075Z,1020.98
2022-10-10T18:00:01.280Z,1020.95
2022-10-10T18:10:03.743Z,1021.06
2022-10-10T18:20:01.320Z,1021.13
2022-10-10T18:30:00.190Z,1021.16
2022-10-10T18:40:02.254Z,1021.38
2022-10-10T18:50:01.180Z,1021.43
2022-10-10T19:00:01.003Z,1021.49
2022-10-10T19:10:01.287Z,1021.65
2022-10-10T19:20:00.987Z,1021.78
2022-10-10T19:30:01.502Z,1021.82
2022-10-10T19:40:00.977Z,1021.82
2022-10-10T19:50:01.091Z,1021.84
2022-10-10T20:00:02.536Z,1021.96
2022-10-10T20:10:01.030Z,1022.06
2022-10-10T20:20:01.233Z,1022.22
2022-10-10T20:30:01.071Z,1022.33
2022-10-10T20:40:01.032Z,1022.43
2022-10-10T20:50:02.180Z,1022.69
2022-10-10T21:00:01.165Z,1022.84
2022-10-10T21:10:01.265Z,1022.99
2022-10-10T21:20:01.245Z,1023.13
2022-10-10T21:30:01.299Z,1023.29
2022-10-10T21:40:00.969Z,1023.46
2022-10-10T21:50:01.538Z,1023.64
2022-10-10T22:00:01.940Z,1023.76
2022-10-10T22:10:01.921Z,1023.99
2022-10-10T22:20:00.981Z,1024.04
2022-10-10T22:30:01.325Z,1024.27
2022-10-10T22:40:00.989Z,1024.24
2022-10-10T22:50:01.103Z,1024.31
2022-10-10T23:00:01.030Z,1024.47
2022-10-10T23:10:01.232Z,1024.62
2022-10-10T23:20:00.129Z,1024.74
2022-10-10T23:30:00.147Z,1024.88
2022-10-10T23:40:01.271Z,1025.05
2022-10-10T23:50:00.995Z,1025.35
